Time;durP1;ratioP1;P1;durP2;ratioP2;P2;SDS_P1;SDS_P2;PMS_P1;PMS_P2;Temp;Humidity;BMP_temperature;BMP_pressure;BME280_temperature;BME280_humidity;BME280_pressure;Samples;Min_cycle;Max_cycle;Signal;HPM_P1;HPM_P2
2023/09/06 00:00:00;;;;;;;5.35;2.70;;;19.30;99.90;;;;;;5036118;28;20048;-72
2023/09/06 00:02:31;;;;;;;5.03;2.63;;;19.30;99.90;;;;;;5035979;28;20499;-70
2023/09/06 00:05:07;;;;;;;5.85;3.03;;;19.30;99.90;;;;;;5036406;28;20037;-71
2023/09/06 00:07:39;;;;;;;5.38;2.90;;;19.30;99.90;;;;;;5020623;28;20048;-72
2023/09/06 00:10:05;;;;;;;6.25;2.90;;;19.30;99.90;;;;;;5035644;28;20040;-71
2023/09/06 00:12:37;;;;;;;6.45;4.28;;;19.30;99.90;;;;;;5019170;28;20040;-71
2023/09/06 00:15:04;;;;;;;5.22;2.58;;;19.30;99.90;;;;;;5019797;28;20063;-71
2023/09/06 00:17:30;;;;;;;5.10;2.85;;;19.20;99.90;;;;;;5019701;28;20496;-71
2023/09/06 00:19:59;;;;;;;7.20;3.97;;;19.20;99.90;;;;;;5035823;28;20110;-66
2023/09/06 00:22:25;;;;;;;5.50;2.90;;;19.10;99.90;;;;;;5019174;28;20041;-65
2023/09/06 00:24:57;;;;;;;5.80;2.92;;;19.10;99.90;;;;;;5019155;28;20182;-65
2023/09/06 00:27:41;;;;;;;8.77;4.97;;;19.10;99.90;;;;;;5035330;28;20060;-66
2023/09/06 00:30:07;;;;;;;5.25;3.00;;;19.10;99.90;;;;;;5004034;28;20053;-67
2023/09/06 00:32:34;;;;;;;5.97;2.95;;;19.00;99.90;;;;;;5031744;28;20053;-65
2023/09/06 00:35:10;;;;;;;6.43;4.00;;;19.00;99.90;;;;;;5000147;28;20060;-65
2023/09/06 00:37:37;;;;;;;6.13;3.13;;;18.90;99.90;;;;;;5015993;28;20037;-68
2023/09/06 00:40:37;;;;;;;7.93;5.20;;;18.90;99.90;;;;;;5031867;28;20053;-65
2023/09/06 00:43:02;;;;;;;6.78;3.30;;;18.80;99.90;;;;;;5029517;28;20056;-65
2023/09/06 00:45:31;;;;;;;5.93;3.40;;;18.70;99.90;;;;;;5031272;28;20515;-65
2023/09/06 00:48:09;;;;;;;6.38;4.47;;;18.70;99.90;;;;;;5033029;28;20041;-67
2023/09/06 00:50:36;;;;;;;6.55;4.50;;;18.70;99.90;;;;;;5021094;28;20040;-67
2023/09/06 00:53:05;;;;;;;6.35;3.40;;;18.60;99.90;;;;;;5036360;28;20047;-65
2023/09/06 00:55:33;;;;;;;5.78;3.53;;;18.60;99.90;;;;;;5036006;28;20038;-63
2023/09/06 00:57:58;;;;;;;6.07;3.50;;;18.60;99.90;;;;;;5037091;28;20044;-64
2023/09/06 01:00:28;;;;;;;9.27;7.03;;;18.60;99.90;;;;;;5036228;28;20045;-64
2023/09/06 01:02:54;;;;;;;7.85;5.93;;;18.60;99.90;;;;;;5036087;28;20045;-64
2023/09/06 01:05:20;;;;;;;7.55;5.32;;;18.40;99.90;;;;;;5035660;28;20041;-64
2023/09/06 01:08:09;;;;;;;7.07;4.63;;;18.40;99.90;;;;;;5035939;28;20041;-65
2023/09/06 01:10:39;;;;;;;8.18;4.90;;;18.30;99.90;;;;;;5035631;28;20048;-65
2023/09/06 01:13:13;;;;;;;9.05;4.20;;;18.30;99.90;;;;;;5035602;28;20119;-65
2023/09/06 01:15:44;;;;;;;5.65;3.20;;;18.30;99.90;;;;;;5035390;28;20038;-65
2023/09/06 01:18:17;;;;;;;5.95;4.30;;;18.30;99.90;;;;;;5035630;28;20041;-65
2023/09/06 01:20:53;;;;;;;7.57;5.07;;;18.30;99.90;;;;;;5019024;28;20048;-63
2023/09/06 01:23:38;;;;;;;5.30;3.45;;;18.20;99.90;;;;;;5035614;28;20048;-65
2023/09/06 01:26:05;;;;;;;7.20;4.43;;;18.20;99.90;;;;;;5035330;28;20046;-64
2023/09/06 01:28:31;;;;;;;6.78;4.80;;;18.20;99.90;;;;;;5036691;28;20049;-65
2023/09/06 01:31:01;;;;;;;8.43;5.13;;;18.10;99.90;;;;;;5018988;28;20471;-70
2023/09/06 01:33:30;;;;;;;6.25;3.20;;;18.10;99.90;;;;;;5035216;28;20053;-71
2023/09/06 01:35:57;;;;;;;6.82;3.85;;;18.10;99.90;;;;;;5035509;28;20045;-71
2023/09/06 01:38:23;;;;;;;6.97;5.32;;;18.10;99.90;;;;;;5035583;28;20124;-71
2023/09/06 01:40:51;;;;;;;5.10;3.00;;;18.10;99.90;;;;;;5018933;28;20489;-72
2023/09/06 01:43:20;;;;;;;8.05;5.50;;;18.00;99.90;;;;;;5019616;28;20049;-70
2023/09/06 01:45:54;;;;;;;5.47;3.20;;;18.00;99.90;;;;;;5019217;28;20405;-71
2023/09/06 01:48:22;;;;;;;5.65;3.33;;;18.00;99.90;;;;;;5018517;28;20128;-71
2023/09/06 01:50:53;;;;;;;6.47;3.70;;;18.00;99.90;;;;;;5003284;28;20101;-70
2023/09/06 01:53:20;;;;;;;8.02;4.95;;;18.00;99.90;;;;;;5019083;28;20045;-71
2023/09/06 01:55:49;;;;;;;6.35;3.20;;;18.00;99.90;;;;;;5018705;28;20045;-71
2023/09/06 01:58:15;;;;;;;5.30;2.95;;;18.00;99.90;;;;;;5034979;28;20132;-69
2023/09/06 02:00:45;;;;;;;5.78;3.30;;;18.00;99.90;;;;;;5017494;28;20456;-72
2023/09/06 02:03:15;;;;;;;5.90;3.60;;;18.00;99.90;;;;;;5018575;28;20095;-71
2023/09/06 02:05:41;;;;;;;8.27;4.68;;;18.00;99.90;;;;;;5035239;28;20050;-70
2023/09/06 02:08:11;;;;;;;7.40;3.80;;;17.90;99.90;;;;;;5018623;28;20077;-71
2023/09/06 02:10:37;;;;;;;5.80;3.17;;;17.90;99.90;;;;;;5034946;28;20152;-71
2023/09/06 02:13:03;;;;;;;5.70;3.30;;;17.80;99.90;;;;;;5034573;28;20128;-71
2023/09/06 02:15:38;;;;;;;5.97;3.20;;;17.90;99.90;;;;;;5018261;28;20128;-72
2023/09/06 02:18:20;;;;;;;6.28;3.22;;;17.90;99.90;;;;;;5032042;28;20057;-70
2023/09/06 02:20:48;;;;;;;7.00;3.63;;;17.90;99.90;;;;;;5034747;28;20064;-71
2023/09/06 02:23:15;;;;;;;6.38;3.20;;;17.90;99.90;;;;;;5034679;28;20116;-71
2023/09/06 02:25:44;;;;;;;5.85;2.92;;;17.80;99.90;;;;;;5018161;28;20046;-72
2023/09/06 02:28:10;;;;;;;5.22;3.08;;;17.80;99.90;;;;;;5018447;28;20068;-70
2023/09/06 02:30:36;;;;;;;6.13;3.47;;;17.80;99.90;;;;;;5020320;28;20053;-71
2023/09/06 02:33:04;;;;;;;5.75;3.22;;;17.90;99.90;;;;;;5037991;28;20045;-71
2023/09/06 02:35:40;;;;;;;4.90;3.20;;;17.80;99.90;;;;;;5037380;28;20037;-71
2023/09/06 02:38:26;;;;;;;5.78;2.95;;;17.80;99.90;;;;;;5037376;28;20040;-71
2023/09/06 02:40:52;;;;;;;5.28;3.17;;;17.80;99.90;;;;;;5037131;28;20049;-65
2023/09/06 02:43:18;;;;;;;5.40;3.35;;;17.80;99.90;;;;;;5037391;28;20044;-64
2023/09/06 02:45:49;;;;;;;7.35;3.30;;;17.70;99.90;;;;;;5037207;28;20048;-66
2023/09/06 02:48:18;;;;;;;8.50;5.30;;;17.80;99.90;;;;;;5037148;28;20047;-64
2023/09/06 02:50:51;;;;;;;7.78;4.95;;;17.80;99.90;;;;;;5037274;28;20043;-64
2023/09/06 02:53:21;;;;;;;6.15;4.07;;;17.60;99.90;;;;;;5005490;28;20037;-65
2023/09/06 02:55:53;;;;;;;5.60;3.25;;;17.50;99.90;;;;;;5037070;28;20073;-65
2023/09/06 02:58:23;;;;;;;5.20;3.22;;;17.50;99.90;;;;;;5036885;28;20076;-65
2023/09/06 03:00:55;;;;;;;6.90;4.63;;;17.50;99.90;;;;;;5036794;28;20037;-64
2023/09/06 03:03:22;;;;;;;7.70;5.65;;;17.50;99.90;;;;;;5021386;28;20562;-65
2023/09/06 03:05:53;;;;;;;8.75;6.72;;;17.50;99.90;;;;;;5037044;28;20477;-66
2023/09/06 03:08:19;;;;;;;8.38;6.38;;;17.40;99.90;;;;;;5036910;28;20103;-65
2023/09/06 03:10:45;;;;;;;11.93;7.38;;;17.30;99.90;;;;;;5036690;28;20489;-65
2023/09/06 03:13:10;;;;;;;6.88;4.90;;;17.30;99.90;;;;;;5020460;28;20098;-64
2023/09/06 03:16:04;;;;;;;9.52;6.57;;;17.10;99.90;;;;;;5036773;28;20048;-64
2023/09/06 03:18:30;;;;;;;6.93;4.10;;;17.10;99.90;;;;;;5034053;28;20472;-65
2023/09/06 03:21:04;;;;;;;7.60;6.03;;;17.00;99.90;;;;;;5036462;28;20072;-65
2023/09/06 03:23:35;;;;;;;6.53;4.10;;;16.90;99.90;;;;;;4989179;28;20132;-64
2023/09/06 03:26:02;;;;;;;6.30;4.65;;;16.90;99.90;;;;;;5036635;28;20147;-65
2023/09/06 03:28:31;;;;;;;7.82;5.47;;;16.90;99.90;;;;;;5020353;28;20524;-65
2023/09/06 03:31:00;;;;;;;8.18;5.60;;;16.90;99.90;;;;;;5032638;28;20057;-67
2023/09/06 03:33:27;;;;;;;6.82;5.05;;;16.90;99.90;;;;;;5017247;28;20061;-65
2023/09/06 03:35:53;;;;;;;7.97;5.82;;;16.80;99.90;;;;;;5016559;28;20091;-65
2023/09/06 03:38:20;;;;;;;8.98;5.50;;;16.80;99.90;;;;;;5033058;28;20033;-65
2023/09/06 03:40:49;;;;;;;6.03;3.63;;;16.70;99.90;;;;;;5032786;28;20049;-64
2023/09/06 03:43:30;;;;;;;6.97;5.05;;;16.70;99.90;;;;;;5033009;28;20050;-66
2023/09/06 03:45:58;;;;;;;6.95;4.10;;;16.60;99.90;;;;;;5033285;28;20461;-65
2023/09/06 03:48:27;;;;;;;5.40;3.35;;;16.60;99.90;;;;;;5032619;28;20079;-64
2023/09/06 03:51:00;;;;;;;5.85;3.65;;;16.60;99.90;;;;;;5034724;28;20152;-72
2023/09/06 03:53:29;;;;;;;5.70;3.58;;;16.60;99.90;;;;;;5032877;28;20077;-70
2023/09/06 03:55:57;;;;;;;10.45;8.35;;;16.60;99.90;;;;;;5032583;28;20037;-71
2023/09/06 03:58:27;;;;;;;10.65;7.65;;;16.50;99.90;;;;;;5032709;28;20041;-71
2023/09/06 04:00:53;;;;;;;11.80;9.30;;;16.40;99.90;;;;;;5032802;28;20509;-71
2023/09/06 04:03:20;;;;;;;11.68;7.25;;;16.20;99.90;;;;;;5016388;28;20049;-70
2023/09/06 04:05:50;;;;;;;9.65;7.68;;;16.10;99.90;;;;;;5032837;28;20038;-71
2023/09/06 04:08:19;;;;;;;6.90;4.45;;;16.10;99.90;;;;;;5017324;28;20076;-70
2023/09/06 04:10:45;;;;;;;11.25;8.50;;;16.10;99.90;;;;;;5032524;28;20034;-71
2023/09/06 04:13:13;;;;;;;10.07;8.10;;;16.10;99.90;;;;;;5032382;28;20049;-71
2023/09/06 04:15:39;;;;;;;10.25;5.78;;;16.10;99.90;;;;;;5032276;28;20041;-72
2023/09/06 04:18:09;;;;;;;6.15;3.63;;;16.10;99.90;;;;;;5032360;28;20044;-71
2023/09/06 04:20:36;;;;;;;6.03;3.60;;;16.10;99.90;;;;;;5032565;28;20072;-72
2023/09/06 04:23:07;;;;;;;6.47;3.40;;;16.20;99.90;;;;;;5033324;28;20034;-71
2023/09/06 04:25:36;;;;;;;5.93;3.60;;;16.20;99.90;;;;;;5032183;28;20037;-72
2023/09/06 04:28:07;;;;;;;6.07;3.40;;;16.20;99.90;;;;;;5016863;28;20037;-71
2023/09/06 04:30:36;;;;;;;6.22;3.60;;;16.20;99.90;;;;;;5035337;28;20045;-70
2023/09/06 04:33:07;;;;;;;7.13;4.05;;;16.30;99.90;;;;;;5018866;28;20111;-70
2023/09/06 04:35:37;;;;;;;6.55;4.15;;;16.40;99.90;;;;;;5035550;28;20049;-70
2023/09/06 04:38:03;;;;;;;6.07;3.40;;;16.40;99.90;;;;;;5035768;28;20042;-70
2023/09/06 04:40:29;;;;;;;6.47;3.13;;;16.40;99.90;;;;;;5035686;28;20036;-70
2023/09/06 04:42:56;;;;;;;6.03;3.10;;;16.40;99.90;;;;;;5035163;28;20041;-70
2023/09/06 04:45:22;;;;;;;6.38;3.35;;;16.40;99.90;;;;;;5035287;28;20045;-70
2023/09/06 04:47:48;;;;;;;6.55;3.20;;;16.40;99.90;;;;;;5018952;28;20041;-71
2023/09/06 04:50:14;;;;;;;6.10;3.25;;;16.40;99.90;;;;;;5035299;28;20037;-71
2023/09/06 04:52:47;;;;;;;5.88;3.22;;;16.30;99.90;;;;;;5002532;28;20048;-70
2023/09/06 04:55:14;;;;;;;10.18;8.55;;;16.30;99.90;;;;;;5035053;28;20043;-70
2023/09/06 04:57:41;;;;;;;9.63;6.53;;;16.30;99.90;;;;;;5035372;28;20045;-70
2023/09/06 05:00:15;;;;;;;7.97;4.68;;;16.30;99.90;;;;;;5035352;28;20488;-71
2023/09/06 05:02:42;;;;;;;9.27;6.65;;;16.30;99.90;;;;;;5003686;28;20041;-71
2023/09/06 05:05:08;;;;;;;6.40;3.78;;;16.20;99.90;;;;;;5035173;28;20059;-70
2023/09/06 05:07:35;;;;;;;5.85;3.58;;;16.20;99.90;;;;;;5018826;28;20045;-71
2023/09/06 05:10:01;;;;;;;10.60;5.93;;;16.20;99.90;;;;;;5018970;28;20607;-72
2023/09/06 05:12:27;;;;;;;10.05;6.88;;;16.20;99.90;;;;;;5034994;28;20033;-72
2023/09/06 05:14:54;;;;;;;10.65;7.07;;;16.20;99.90;;;;;;5035200;28;20120;-72
2023/09/06 05:17:19;;;;;;;9.27;6.93;;;16.40;99.90;;;;;;5034975;28;20040;-71
2023/09/06 05:19:49;;;;;;;9.88;7.25;;;16.30;99.90;;;;;;5035176;28;20416;-69
2023/09/06 05:22:16;;;;;;;9.55;7.70;;;16.20;99.90;;;;;;5034951;28;20103;-71
2023/09/06 05:24:41;;;;;;;9.60;7.78;;;16.20;99.90;;;;;;5035296;28;20037;-71
2023/09/06 05:27:07;;;;;;;10.35;7.35;;;16.30;99.90;;;;;;5018452;28;20101;-71
2023/09/06 05:29:33;;;;;;;9.23;7.53;;;16.40;99.90;;;;;;5018857;28;20040;-73
2023/09/06 05:31:59;;;;;;;10.65;7.63;;;16.50;99.90;;;;;;5031264;28;20091;-70
2023/09/06 05:34:25;;;;;;;10.32;8.20;;;16.40;99.90;;;;;;5033552;28;20406;-71
2023/09/06 05:36:51;;;;;;;10.45;8.00;;;16.30;99.90;;;;;;5035504;28;20045;-71
2023/09/06 05:39:20;;;;;;;10.73;7.70;;;16.30;99.90;;;;;;5035338;28;20498;-72
2023/09/06 05:41:47;;;;;;;9.82;7.70;;;16.20;99.90;;;;;;5035710;28;20134;-71
2023/09/06 05:44:13;;;;;;;11.10;7.80;;;16.20;99.90;;;;;;5018675;28;20045;-71
2023/09/06 05:46:52;;;;;;;9.57;7.90;;;16.30;99.90;;;;;;5018889;28;20041;-71
2023/09/06 05:49:18;;;;;;;9.45;7.45;;;16.50;99.90;;;;;;5018968;28;20132;-72
2023/09/06 05:51:44;;;;;;;11.55;7.80;;;16.60;99.90;;;;;;5035289;28;20042;-72
2023/09/06 05:54:10;;;;;;;10.30;8.63;;;16.60;99.90;;;;;;5035405;28;20039;-72
2023/09/06 05:56:35;;;;;;;10.32;8.27;;;16.50;99.90;;;;;;5035430;28;20033;-70
2023/09/06 05:59:01;;;;;;;11.13;8.43;;;16.50;99.90;;;;;;5018897;28;20566;-72
2023/09/06 06:01:27;;;;;;;10.10;8.18;;;16.40;99.90;;;;;;5035333;28;20041;-70
2023/09/06 06:03:53;;;;;;;9.52;7.90;;;16.50;99.90;;;;;;5018891;28;20343;-70
2023/09/06 06:06:20;;;;;;;9.90;8.20;;;16.50;99.90;;;;;;5035165;28;20041;-72
2023/09/06 06:08:54;;;;;;;10.45;8.48;;;16.60;99.90;;;;;;5019209;28;20493;-71
2023/09/06 06:11:22;;;;;;;10.73;8.10;;;16.90;99.90;;;;;;5020819;28;20041;-71
2023/09/06 06:14:00;;;;;;;9.63;7.10;;;17.60;99.90;;;;;;5006502;28;20076;-69
2023/09/06 06:16:26;;;;;;;10.07;6.90;;;18.10;99.90;;;;;;5008145;28;20101;-71
2023/09/06 06:18:51;;;;;;;8.15;5.70;;;18.30;99.90;;;;;;5040699;28;20073;-72
2023/09/06 06:21:17;;;;;;;7.07;4.97;;;19.20;99.90;;;;;;5040766;28;20049;-71
2023/09/06 06:23:46;;;;;;;7.80;4.90;;;20.10;99.90;;;;;;5040382;28;20498;-70
2023/09/06 06:26:12;;;;;;;7.20;5.07;;;20.60;99.90;;;;;;5042259;28;20099;-70
2023/09/06 06:28:38;;;;;;;6.57;4.78;;;20.90;99.90;;;;;;5060405;28;20048;-70
2023/09/06 06:31:14;;;;;;;7.10;4.30;;;21.40;99.90;;;;;;5028733;28;20054;-70
2023/09/06 06:33:40;;;;;;;6.82;4.43;;;22.00;99.90;;;;;;5044692;28;20096;-70
2023/09/06 06:36:15;;;;;;;8.15;4.35;;;22.60;99.90;;;;;;5039751;28;20247;-71
2023/09/06 06:38:46;;;;;;;6.05;4.00;;;23.60;99.90;;;;;;5024777;28;20049;-71
2023/09/06 06:41:20;;;;;;;8.82;4.30;;;24.40;99.90;;;;;;5007307;28;20386;-69
2023/09/06 06:43:49;;;;;;;5.75;3.80;;;24.80;99.90;;;;;;5021524;28;20049;-70
2023/09/06 06:46:32;;;;;;;8.77;4.25;;;25.50;99.90;;;;;;5035434;28;20048;-70
2023/09/06 06:49:13;;;;;;;7.28;4.13;;;26.20;99.90;;;;;;5035214;28;20081;-72
2023/09/06 06:51:40;;;;;;;6.95;4.15;;;26.30;99.90;;;;;;5018044;28;20033;-72
2023/09/06 06:54:15;;;;;;;6.38;3.97;;;26.30;99.90;;;;;;5018529;28;20045;-71
2023/09/06 06:56:41;;;;;;;7.50;4.28;;;26.40;99.90;;;;;;5035579;28;20121;-71
2023/09/06 06:59:13;;;;;;;6.28;3.83;;;26.60;99.90;;;;;;5034429;28;20106;-72
2023/09/06 07:01:39;;;;;;;6.40;3.88;;;27.00;98.90;;;;;;5001428;28;20041;-70
2023/09/06 07:04:08;;;;;;;7.53;3.75;;;27.20;99.10;;;;;;5018164;28;20048;-69
2023/09/06 07:06:35;;;;;;;5.50;3.83;;;27.50;97.90;;;;;;5034584;28;20052;-71
2023/09/06 07:09:04;;;;;;;7.78;3.90;;;27.70;98.50;;;;;;5002341;28;20072;-70
2023/09/06 07:11:31;;;;;;;5.65;3.70;;;27.80;98.00;;;;;;5035530;28;20045;-70
2023/09/06 07:14:03;;;;;;;5.88;3.70;;;27.60;98.10;;;;;;5002107;28;20038;-70
2023/09/06 07:16:31;;;;;;;7.05;4.03;;;27.70;98.20;;;;;;5018615;28;20037;-71
2023/09/06 07:18:57;;;;;;;5.93;3.83;;;27.70;98.30;;;;;;5019941;28;20049;-67
2023/09/06 07:21:24;;;;;;;5.68;3.58;;;27.60;97.70;;;;;;5033548;28;20516;-67
2023/09/06 07:23:50;;;;;;;8.23;3.78;;;27.30;97.00;;;;;;5033427;28;20056;-66
2023/09/06 07:26:22;;;;;;;7.63;3.90;;;26.90;98.10;;;;;;5032931;28;20049;-66
2023/09/06 07:28:50;;;;;;;7.45;3.80;;;26.70;98.90;;;;;;5033100;28;20127;-65
2023/09/06 07:31:17;;;;;;;6.20;3.47;;;26.50;99.40;;;;;;5032728;28;20064;-66
2023/09/06 07:33:43;;;;;;;5.47;3.53;;;26.40;99.80;;;;;;5016781;28;20091;-66
2023/09/06 07:36:11;;;;;;;5.55;3.60;;;26.40;99.50;;;;;;5033110;28;20084;-66
2023/09/06 07:38:37;;;;;;;6.18;3.75;;;26.50;99.90;;;;;;5016942;28;20107;-66
2023/09/06 07:41:07;;;;;;;6.72;3.67;;;26.60;99.80;;;;;;5049812;28;20033;-66
2023/09/06 07:43:37;;;;;;;5.70;3.50;;;26.40;99.80;;;;;;5033059;28;20049;-66
2023/09/06 07:46:08;;;;;;;5.93;3.78;;;25.90;99.90;;;;;;5032670;28;20045;-65
2023/09/06 07:48:35;;;;;;;6.43;3.10;;;25.90;99.90;;;;;;5016451;28;20052;-65
2023/09/06 07:51:07;;;;;;;5.10;2.92;;;26.10;99.90;;;;;;5032782;28;20485;-66
2023/09/06 07:53:33;;;;;;;7.45;2.97;;;26.10;99.90;;;;;;5016979;28;20072;-65
2023/09/06 07:55:59;;;;;;;5.72;2.90;;;25.90;99.90;;;;;;5032627;28;20075;-65
2023/09/06 07:58:25;;;;;;;6.82;2.92;;;25.60;99.90;;;;;;5031953;28;20080;-65
2023/09/06 08:00:51;;;;;;;5.78;2.58;;;25.40;99.90;;;;;;5032399;28;20072;-65
2023/09/06 08:03:17;;;;;;;5.63;2.60;;;25.20;99.90;;;;;;5032406;28;20041;-65
2023/09/06 08:05:46;;;;;;;6.60;2.45;;;25.10;99.90;;;;;;5032673;28;20508;-65
2023/09/06 08:08:15;;;;;;;6.47;2.60;;;25.20;99.90;;;;;;5016113;28;20095;-66
2023/09/06 08:10:41;;;;;;;4.82;2.47;;;25.20;99.90;;;;;;5032227;28;20037;-65
2023/09/06 08:13:07;;;;;;;5.55;2.55;;;25.40;99.90;;;;;;5049205;28;20393;-65
2023/09/06 08:15:35;;;;;;;6.05;2.50;;;25.50;99.90;;;;;;5048829;28;20041;-65
2023/09/06 08:18:03;;;;;;;5.25;2.10;;;25.50;99.90;;;;;;5032396;28;20048;-64
2023/09/06 08:20:29;;;;;;;5.95;2.38;;;25.40;99.90;;;;;;5015975;28;20041;-65
2023/09/06 08:22:55;;;;;;;5.05;2.38;;;25.30;99.90;;;;;;5032500;28;20041;-66
2023/09/06 08:25:21;;;;;;;5.43;2.30;;;25.40;99.90;;;;;;5032129;28;20129;-66
2023/09/06 08:27:47;;;;;;;4.68;2.60;;;25.40;99.90;;;;;;5032317;28;20140;-65
2023/09/06 08:30:16;;;;;;;5.65;2.33;;;25.80;99.90;;;;;;5032469;28;20041;-65
2023/09/06 08:32:43;;;;;;;5.53;2.40;;;26.00;97.60;;;;;;5031567;28;20053;-65
2023/09/06 08:35:13;;;;;;;5.50;2.30;;;26.00;98.00;;;;;;5031990;28;20045;-65
2023/09/06 08:37:42;;;;;;;5.28;2.28;;;26.00;99.60;;;;;;5032233;28;20051;-65
2023/09/06 08:40:11;;;;;;;6.68;2.30;;;26.10;99.10;;;;;;4999731;28;20034;-65
2023/09/06 08:42:38;;;;;;;4.53;2.20;;;26.20;99.50;;;;;;5033255;28;20041;-64
2023/09/06 08:45:11;;;;;;;6.03;2.40;;;26.40;99.30;;;;;;5015909;28;20563;-66
2023/09/06 08:47:39;;;;;;;7.85;2.50;;;26.50;97.70;;;;;;5031878;28;20193;-64
2023/09/06 08:50:12;;;;;;;7.60;2.50;;;26.50;99.00;;;;;;5032000;28;20053;-65
2023/09/06 08:52:40;;;;;;;5.95;2.20;;;26.70;97.90;;;;;;5031844;28;20045;-65
2023/09/06 08:55:09;;;;;;;5.10;2.28;;;26.90;97.10;;;;;;5032944;28;20103;-66
2023/09/06 08:57:40;;;;;;;6.90;2.45;;;27.00;96.00;;;;;;5032049;28;20524;-67
2023/09/06 09:00:09;;;;;;;5.68;2.10;;;27.20;96.40;;;;;;5031870;28;20042;-66
2023/09/06 09:02:42;;;;;;;4.82;2.38;;;27.30;95.50;;;;;;5031652;28;20041;-65
2023/09/06 09:05:11;;;;;;;5.45;2.20;;;27.60;96.60;;;;;;5015687;28;20057;-64
2023/09/06 09:07:37;;;;;;;4.78;2.30;;;27.80;93.60;;;;;;5031714;28;20137;-66
2023/09/06 09:10:26;;;;;;;9.20;2.45;;;28.00;93.30;;;;;;5034943;28;20124;-64
2023/09/06 09:12:58;;;;;;;5.13;2.17;;;28.10;94.20;;;;;;5020238;28;20041;-65
2023/09/06 09:15:27;;;;;;;4.93;2.30;;;28.30;92.60;;;;;;5035838;28;20092;-66
2023/09/06 09:17:54;;;;;;;5.18;2.30;;;28.40;94.10;;;;;;5019167;28;20096;-65
2023/09/06 09:20:20;;;;;;;5.07;2.30;;;28.50;93.10;;;;;;5019169;28;20041;-64
2023/09/06 09:22:47;;;;;;;4.90;2.33;;;28.50;90.10;;;;;;5035360;28;20056;-65
2023/09/06 09:25:16;;;;;;;4.35;2.05;;;28.40;90.80;;;;;;5019294;28;20128;-66
2023/09/06 09:27:46;;;;;;;4.80;2.25;;;28.30;91.30;;;;;;5051739;28;20042;-65
2023/09/06 09:30:18;;;;;;;5.63;2.40;;;28.40;93.00;;;;;;5035289;28;20048;-69
2023/09/06 09:32:57;;;;;;;4.78;2.20;;;28.70;92.90;;;;;;5035082;28;20064;-65
2023/09/06 09:35:26;;;;;;;5.68;2.40;;;28.80;92.40;;;;;;5018659;28;20119;-66
2023/09/06 09:38:01;;;;;;;5.25;2.30;;;28.90;89.20;;;;;;5035148;28;20084;-66
2023/09/06 09:40:32;;;;;;;5.13;2.15;;;28.90;91.20;;;;;;5004635;28;20045;-70
2023/09/06 09:43:01;;;;;;;6.30;2.45;;;28.90;87.60;;;;;;5035901;28;20135;-72
2023/09/06 09:45:28;;;;;;;4.95;2.40;;;28.90;86.10;;;;;;5019067;28;20402;-63
2023/09/06 09:48:07;;;;;;;5.40;2.47;;;28.80;87.20;;;;;;5035278;28;20379;-64
2023/09/06 09:50:41;;;;;;;5.68;2.45;;;28.80;88.50;;;;;;5035241;28;20041;-65
2023/09/06 09:53:10;;;;;;;4.82;2.10;;;28.70;87.80;;;;;;5035120;28;20516;-63
2023/09/06 09:55:44;;;;;;;5.10;2.40;;;28.70;88.40;;;;;;5035117;28;20033;-64
2023/09/06 09:58:11;;;;;;;4.65;2.40;;;28.80;88.10;;;;;;5035130;28;20041;-65
2023/09/06 10:00:41;;;;;;;5.97;2.35;;;28.80;89.90;;;;;;5051354;28;20052;-65
2023/09/06 10:03:08;;;;;;;5.05;2.60;;;29.00;90.20;;;;;;5034656;28;20111;-65
2023/09/06 10:05:36;;;;;;;4.95;2.30;;;29.20;88.80;;;;;;5034814;28;20045;-64
2023/09/06 10:08:05;;;;;;;6.45;2.30;;;29.20;88.50;;;;;;5018089;28;20037;-65
2023/09/06 10:10:35;;;;;;;5.07;2.30;;;29.30;83.00;;;;;;5034536;28;20087;-66
2023/09/06 10:13:25;;;;;;;5.70;2.40;;;29.20;83.20;;;;;;5034444;28;20080;-65
2023/09/06 10:15:53;;;;;;;6.10;2.43;;;29.20;79.90;;;;;;5019747;28;20049;-65
2023/09/06 10:18:19;;;;;;;4.75;2.10;;;29.10;81.90;;;;;;5034931;28;20045;-65
2023/09/06 10:20:46;;;;;;;5.45;2.20;;;29.20;85.60;;;;;;5033311;28;20037;-64
2023/09/06 10:23:12;;;;;;;4.55;2.30;;;29.30;82.60;;;;;;5034381;28;20063;-65
2023/09/06 10:25:47;;;;;;;5.32;2.40;;;29.20;85.10;;;;;;5034298;28;20046;-65
2023/09/06 10:28:37;;;;;;;5.22;2.33;;;29.40;86.70;;;;;;5034251;28;20033;-64
2023/09/06 10:31:08;;;;;;;4.80;2.20;;;29.40;85.80;;;;;;5021178;28;20087;-65
2023/09/06 10:33:42;;;;;;;5.88;2.40;;;29.60;82.20;;;;;;5033746;28;20049;-66
2023/09/06 10:36:19;;;;;;;5.13;2.20;;;29.60;85.00;;;;;;5034622;28;20045;-65
2023/09/06 10:39:14;;;;;;;4.90;2.28;;;29.70;82.60;;;;;;5018094;28;20547;-65
2023/09/06 10:42:09;;;;;;;4.63;2.00;;;29.70;84.60;;;;;;5028592;28;20045;-66
2023/09/06 10:44:53;;;;;;;5.80;2.15;;;29.80;85.00;;;;;;5033991;28;20080;-67
2023/09/06 10:47:45;;;;;;;6.07;2.38;;;29.80;80.80;;;;;;5034176;28;20076;-68
2023/09/06 10:50:20;;;;;;;4.32;2.20;;;29.80;83.20;;;;;;5034177;28;20033;-68
2023/09/06 10:52:57;;;;;;;4.30;2.20;;;29.80;80.70;;;;;;5033599;28;20041;-65
2023/09/06 10:55:47;;;;;;;4.20;2.30;;;29.80;81.90;;;;;;5035268;28;20067;-66
2023/09/06 10:58:13;;;;;;;4.38;2.03;;;29.90;81.70;;;;;;5033713;28;20038;-68
2023/09/06 11:00:42;;;;;;;5.22;2.10;;;29.90;81.00;;;;;;5033978;28;20034;-66
2023/09/06 11:03:14;;;;;;;4.72;2.10;;;30.00;80.60;;;;;;5033660;28;20041;-65
2023/09/06 11:05:50;;;;;;;4.45;2.10;;;30.00;78.40;;;;;;5034027;28;20041;-64
2023/09/06 11:08:42;;;;;;;4.72;2.05;;;29.90;78.80;;;;;;5033586;28;20099;-65
2023/09/06 11:11:09;;;;;;;5.28;2.38;;;29.90;84.00;;;;;;5031757;28;20050;-64
2023/09/06 11:13:37;;;;;;;5.10;2.17;;;30.00;80.50;;;;;;5034304;28;20436;-66
2023/09/06 11:16:03;;;;;;;5.07;2.28;;;30.00;79.50;;;;;;5033350;28;20037;-65
2023/09/06 11:18:50;;;;;;;6.30;2.15;;;30.00;81.00;;;;;;5034459;28;20044;-66
2023/09/06 11:21:21;;;;;;;4.90;2.10;;;30.10;80.90;;;;;;5033257;28;20049;-64
2023/09/06 11:24:07;;;;;;;5.47;2.10;;;30.10;84.00;;;;;;5017017;28;20041;-65
2023/09/06 11:26:37;;;;;;;5.25;2.10;;;30.10;79.80;;;;;;5032869;28;20053;-65
2023/09/06 11:29:03;;;;;;;4.72;2.00;;;30.10;82.90;;;;;;5033145;28;20128;-65
2023/09/06 11:31:34;;;;;;;5.97;2.00;;;30.20;83.10;;;;;;5033121;28;20049;-66
2023/09/06 11:34:04;;;;;;;5.72;2.38;;;30.20;81.10;;;;;;5033185;28;20045;-65
2023/09/06 11:36:36;;;;;;;4.43;2.03;;;30.20;83.80;;;;;;5033131;28;20041;-66
2023/09/06 11:39:18;;;;;;;6.25;2.35;;;30.10;81.40;;;;;;5017091;28;20045;-64
2023/09/06 11:41:54;;;;;;;4.80;2.17;;;29.90;80.60;;;;;;5004746;28;20111;-65
2023/09/06 11:44:23;;;;;;;5.70;2.35;;;30.10;78.80;;;;;;5016919;28;20310;-65
2023/09/06 11:46:53;;;;;;;5.82;2.00;;;30.20;80.00;;;;;;5000689;28;20509;-66
2023/09/06 11:49:25;;;;;;;4.80;2.13;;;30.20;82.10;;;;;;5033004;28;20095;-65
2023/09/06 11:51:56;;;;;;;6.07;2.00;;;30.30;83.60;;;;;;5033144;28;20567;-64
2023/09/06 11:54:26;;;;;;;4.72;2.10;;;30.00;80.60;;;;;;5016579;28;20107;-65
2023/09/06 11:56:53;;;;;;;4.63;2.10;;;30.10;81.40;;;;;;5032853;28;20398;-64
2023/09/06 11:59:22;;;;;;;4.68;2.00;;;30.30;80.90;;;;;;5032574;28;20103;-71
2023/09/06 12:01:59;;;;;;;5.32;2.20;;;30.30;81.40;;;;;;5033032;28;20383;-70
2023/09/06 12:04:34;;;;;;;5.93;1.98;;;30.40;81.10;;;;;;5017759;28;20045;-70
2023/09/06 12:07:02;;;;;;;5.00;2.10;;;30.40;79.60;;;;;;5032757;28;20048;-72
2023/09/06 12:09:28;;;;;;;5.07;1.90;;;30.40;81.00;;;;;;5016692;28;20378;-70
2023/09/06 12:11:54;;;;;;;6.03;1.98;;;30.40;82.90;;;;;;5032413;28;20052;-71
2023/09/06 12:14:23;;;;;;;4.85;1.90;;;30.50;82.30;;;;;;5032513;28;20140;-72
2023/09/06 12:16:56;;;;;;;5.03;2.20;;;30.50;82.10;;;;;;5032370;28;20077;-71
2023/09/06 12:19:26;;;;;;;4.38;1.98;;;30.50;81.10;;;;;;5032647;28;20444;-72
2023/09/06 12:21:54;;;;;;;4.40;1.73;;;30.50;79.30;;;;;;5032306;28;20046;-72
2023/09/06 12:24:20;;;;;;;4.88;2.10;;;30.50;77.90;;;;;;5032468;28;20045;-71
2023/09/06 12:26:47;;;;;;;5.05;2.00;;;30.50;81.80;;;;;;5032492;28;20068;-71
2023/09/06 12:29:13;;;;;;;5.55;1.95;;;30.50;78.40;;;;;;5015930;28;20131;-72
2023/09/06 12:31:39;;;;;;;3.83;1.67;;;30.50;78.90;;;;;;5032469;28;20540;-71
2023/09/06 12:34:06;;;;;;;4.75;1.77;;;30.50;76.20;;;;;;5032079;28;20064;-73
2023/09/06 12:36:32;;;;;;;3.95;1.63;;;30.50;77.10;;;;;;5015978;28;20132;-72
2023/09/06 12:39:11;;;;;;;4.72;1.90;;;30.50;77.90;;;;;;5032506;28;20073;-70
2023/09/06 12:41:37;;;;;;;5.95;1.90;;;30.50;77.70;;;;;;5032208;28;20052;-72
2023/09/06 12:44:03;;;;;;;4.70;1.80;;;30.40;77.70;;;;;;5031922;28;20053;-71
2023/09/06 12:46:29;;;;;;;3.92;1.60;;;30.40;78.80;;;;;;5015409;28;20060;-71
2023/09/06 12:48:55;;;;;;;4.75;1.80;;;30.30;77.70;;;;;;5031944;28;20405;-71
2023/09/06 12:51:21;;;;;;;5.03;1.90;;;30.40;78.30;;;;;;5015503;28;20100;-70
2023/09/06 12:53:46;;;;;;;5.18;1.73;;;30.40;80.10;;;;;;5032152;28;20041;-71
2023/09/06 12:56:12;;;;;;;4.95;1.70;;;30.40;80.00;;;;;;5032038;28;20042;-71
2023/09/06 12:58:39;;;;;;;6.10;1.77;;;30.40;78.40;;;;;;5015756;28;20041;-72